sensor_id;sensor_type;location;lat;lon;timestamp;P1;durP1;ratioP1;P2;durP2;ratioP2
63282;SDS011;49407;51.388;0.048;2022-09-12T00:01:21;15.52;;;13.77;;
63282;SDS011;49407;51.388;0.048;2022-09-12T00:03:51;15.57;;;14.10;;
63282;SDS011;49407;51.388;0.048;2022-09-12T00:08:54;15.77;;;14.48;;
63282;SDS011;49407;51.388;0.048;2022-09-12T00:11:23;16.35;;;14.88;;
63282;SDS011;49407;51.388;0.048;2022-09-12T00:13:51;15.63;;;14.32;;
63282;SDS011;49407;51.388;0.048;2022-09-12T00:16:23;14.70;;;13.30;;
63282;SDS011;49407;51.388;0.048;2022-09-12T00:18:53;16.52;;;14.95;;
63282;SDS011;49407;51.388;0.048;2022-09-12T00:21:20;17.50;;;15.73;;
63282;SDS011;49407;51.388;0.048;2022-09-12T00:23:48;17.42;;;15.80;;
63282;SDS011;49407;51.388;0.048;2022-09-12T00:26:16;17.13;;;15.38;;
63282;SDS011;49407;51.388;0.048;2022-09-12T00:28:44;17.77;;;16.08;;
63282;SDS011;49407;51.388;0.048;2022-09-12T00:31:13;18.52;;;16.80;;
63282;SDS011;49407;51.388;0.048;2022-09-12T00:33:42;17.23;;;15.40;;
63282;SDS011;49407;51.388;0.048;2022-09-12T00:36:11;18.65;;;17.00;;
63282;SDS011;49407;51.388;0.048;2022-09-12T00:38:42;18.65;;;16.83;;
63282;SDS011;49407;51.388;0.048;2022-09-12T00:41:12;18.80;;;16.88;;
63282;SDS011;49407;51.388;0.048;2022-09-12T00:43:43;19.42;;;17.27;;
63282;SDS011;49407;51.388;0.048;2022-09-12T00:49:25;17.55;;;15.95;;
63282;SDS011;49407;51.388;0.048;2022-09-12T00:52:10;20.38;;;18.42;;
63282;SDS011;49407;51.388;0.048;2022-09-12T00:54:56;21.38;;;19.45;;
63282;SDS011;49407;51.388;0.048;2022-09-12T00:57:27;21.17;;;19.15;;
63282;SDS011;49407;51.388;0.048;2022-09-12T01:00:00;21.40;;;19.17;;
63282;SDS011;49407;51.388;0.048;2022-09-12T01:02:36;20.83;;;18.73;;
63282;SDS011;49407;51.388;0.048;2022-09-12T01:05:04;22.73;;;20.38;;
63282;SDS011;49407;51.388;0.048;2022-09-12T01:07:34;19.95;;;18.25;;
63282;SDS011;49407;51.388;0.048;2022-09-12T01:12:51;19.63;;;17.67;;
63282;SDS011;49407;51.388;0.048;2022-09-12T01:15:18;20.88;;;18.88;;
63282;SDS011;49407;51.388;0.048;2022-09-12T01:26:02;16.85;;;15.35;;
63282;SDS011;49407;51.388;0.048;2022-09-12T01:31:31;18.63;;;16.77;;
63282;SDS011;49407;51.388;0.048;2022-09-12T01:34:09;18.02;;;16.33;;
63282;SDS011;49407;51.388;0.048;2022-09-12T01:36:48;16.98;;;15.45;;
63282;SDS011;49407;51.388;0.048;2022-09-12T01:47:53;16.52;;;15.07;;
63282;SDS011;49407;51.388;0.048;2022-09-12T01:53:34;17.00;;;15.30;;
63282;SDS011;49407;51.388;0.048;2022-09-12T01:56:23;17.83;;;16.20;;
63282;SDS011;49407;51.388;0.048;2022-09-12T01:58:57;15.98;;;14.57;;
63282;SDS011;49407;51.388;0.048;2022-09-12T02:01:30;14.07;;;12.88;;
63282;SDS011;49407;51.388;0.048;2022-09-12T02:07:01;15.43;;;14.15;;
63282;SDS011;49407;51.388;0.048;2022-09-12T02:09:44;14.45;;;13.18;;
63282;SDS011;49407;51.388;0.048;2022-09-12T02:12:15;15.23;;;13.75;;
63282;SDS011;49407;51.388;0.048;2022-09-12T02:14:47;14.77;;;13.50;;
63282;SDS011;49407;51.388;0.048;2022-09-12T02:17:19;14.05;;;12.85;;
63282;SDS011;49407;51.388;0.048;2022-09-12T02:22:26;14.23;;;12.80;;
63282;SDS011;49407;51.388;0.048;2022-09-12T02:24:58;13.43;;;12.30;;
63282;SDS011;49407;51.388;0.048;2022-09-12T02:29:59;13.48;;;12.27;;
63282;SDS011;49407;51.388;0.048;2022-09-12T02:32:36;11.48;;;10.57;;
63282;SDS011;49407;51.388;0.048;2022-09-12T02:35:15;12.73;;;11.25;;
63282;SDS011;49407;51.388;0.048;2022-09-12T02:37:58;11.93;;;10.82;;
63282;SDS011;49407;51.388;0.048;2022-09-12T02:40:33;11.80;;;10.80;;
63282;SDS011;49407;51.388;0.048;2022-09-12T02:43:02;12.43;;;11.40;;
63282;SDS011;49407;51.388;0.048;2022-09-12T02:45:30;13.50;;;12.40;;
63282;SDS011;49407;51.388;0.048;2022-09-12T02:48:10;13.13;;;11.93;;
63282;SDS011;49407;51.388;0.048;2022-09-12T02:50:49;12.10;;;10.98;;
63282;SDS011;49407;51.388;0.048;2022-09-12T02:53:17;12.05;;;11.05;;
63282;SDS011;49407;51.388;0.048;2022-09-12T02:55:44;12.00;;;10.85;;
63282;SDS011;49407;51.388;0.048;2022-09-12T02:58:12;12.23;;;11.05;;
63282;SDS011;49407;51.388;0.048;2022-09-12T03:03:22;12.27;;;11.32;;
63282;SDS011;49407;51.388;0.048;2022-09-12T03:05:58;11.77;;;10.68;;
63282;SDS011;49407;51.388;0.048;2022-09-12T03:08:36;10.70;;;9.80;;
63282;SDS011;49407;51.388;0.048;2022-09-12T03:14:21;11.02;;;10.13;;
63282;SDS011;49407;51.388;0.048;2022-09-12T03:20:12;12.10;;;11.00;;
63282;SDS011;49407;51.388;0.048;2022-09-12T03:26:08;10.77;;;10.00;;
63282;SDS011;49407;51.388;0.048;2022-09-12T03:28:44;9.90;;;9.05;;
63282;SDS011;49407;51.388;0.048;2022-09-12T03:31:17;10.23;;;9.43;;
63282;SDS011;49407;51.388;0.048;2022-09-12T03:33:44;10.40;;;9.40;;
63282;SDS011;49407;51.388;0.048;2022-09-12T03:36:14;10.02;;;9.32;;
63282;SDS011;49407;51.388;0.048;2022-09-12T03:38:44;10.40;;;9.68;;
63282;SDS011;49407;51.388;0.048;2022-09-12T03:41:11;10.07;;;9.18;;
63282;SDS011;49407;51.388;0.048;2022-09-12T03:43:38;9.68;;;8.98;;
63282;SDS011;49407;51.388;0.048;2022-09-12T03:46:05;9.45;;;8.75;;
63282;SDS011;49407;51.388;0.048;2022-09-12T03:48:32;9.65;;;8.50;;
63282;SDS011;49407;51.388;0.048;2022-09-12T03:51:05;10.35;;;9.65;;
63282;SDS011;49407;51.388;0.048;2022-09-12T03:53:34;10.18;;;9.38;;
63282;SDS011;49407;51.388;0.048;2022-09-12T03:56:06;9.57;;;8.77;;
63282;SDS011;49407;51.388;0.048;2022-09-12T04:01:39;9.65;;;8.95;;
63282;SDS011;49407;51.388;0.048;2022-09-12T04:04:07;9.25;;;8.55;;
63282;SDS011;49407;51.388;0.048;2022-09-12T04:06:34;9.93;;;9.18;;
63282;SDS011;49407;51.388;0.048;2022-09-12T04:09:02;9.80;;;9.10;;
63282;SDS011;49407;51.388;0.048;2022-09-12T04:11:30;9.70;;;8.90;;
63282;SDS011;49407;51.388;0.048;2022-09-12T04:13:57;10.32;;;9.52;;
63282;SDS011;49407;51.388;0.048;2022-09-12T04:16:24;10.48;;;9.60;;
63282;SDS011;49407;51.388;0.048;2022-09-12T04:18:53;10.02;;;9.20;;
63282;SDS011;49407;51.388;0.048;2022-09-12T04:21:19;9.65;;;8.95;;
63282;SDS011;49407;51.388;0.048;2022-09-12T04:23:47;9.55;;;8.77;;
63282;SDS011;49407;51.388;0.048;2022-09-12T04:26:17;10.30;;;9.40;;
63282;SDS011;49407;51.388;0.048;2022-09-12T04:28:51;8.95;;;8.25;;
63282;SDS011;49407;51.388;0.048;2022-09-12T04:31:20;10.77;;;9.87;;
63282;SDS011;49407;51.388;0.048;2022-09-12T04:33:52;10.98;;;10.15;;
63282;SDS011;49407;51.388;0.048;2022-09-12T04:36:23;9.57;;;8.77;;
63282;SDS011;49407;51.388;0.048;2022-09-12T04:38:54;10.63;;;9.82;;
63282;SDS011;49407;51.388;0.048;2022-09-12T04:41:22;9.25;;;8.65;;
63282;SDS011;49407;51.388;0.048;2022-09-12T04:43:52;10.98;;;10.02;;
63282;SDS011;49407;51.388;0.048;2022-09-12T04:46:20;11.02;;;10.13;;
63282;SDS011;49407;51.388;0.048;2022-09-12T04:51:53;10.63;;;9.68;;
63282;SDS011;49407;51.388;0.048;2022-09-12T04:54:20;11.55;;;10.50;;
63282;SDS011;49407;51.388;0.048;2022-09-12T04:56:48;10.93;;;10.00;;
63282;SDS011;49407;51.388;0.048;2022-09-12T04:59:18;10.68;;;9.88;;
63282;SDS011;49407;51.388;0.048;2022-09-12T05:01:46;10.48;;;9.68;;
63282;SDS011;49407;51.388;0.048;2022-09-12T05:04:13;10.65;;;9.75;;
63282;SDS011;49407;51.388;0.048;2022-09-12T05:06:41;10.77;;;9.73;;
63282;SDS011;49407;51.388;0.048;2022-09-12T05:09:11;10.77;;;10.07;;
63282;SDS011;49407;51.388;0.048;2022-09-12T05:11:40;10.85;;;9.88;;
63282;SDS011;49407;51.388;0.048;2022-09-12T05:14:28;11.10;;;10.40;;
63282;SDS011;49407;51.388;0.048;2022-09-12T05:16:56;10.35;;;9.68;;
63282;SDS011;49407;51.388;0.048;2022-09-12T05:19:26;10.18;;;9.45;;
63282;SDS011;49407;51.388;0.048;2022-09-12T05:21:53;11.07;;;10.18;;
63282;SDS011;49407;51.388;0.048;2022-09-12T05:24:21;9.80;;;9.00;;
63282;SDS011;49407;51.388;0.048;2022-09-12T05:26:48;11.10;;;10.23;;
63282;SDS011;49407;51.388;0.048;2022-09-12T05:29:15;10.40;;;9.60;;
63282;SDS011;49407;51.388;0.048;2022-09-12T05:31:42;9.63;;;9.00;;
63282;SDS011;49407;51.388;0.048;2022-09-12T05:34:09;9.57;;;8.88;;
63282;SDS011;49407;51.388;0.048;2022-09-12T05:36:36;10.82;;;9.82;;
63282;SDS011;49407;51.388;0.048;2022-09-12T05:39:04;10.88;;;9.98;;
63282;SDS011;49407;51.388;0.048;2022-09-12T05:41:32;10.00;;;9.20;;
63282;SDS011;49407;51.388;0.048;2022-09-12T05:44:04;9.40;;;8.73;;
63282;SDS011;49407;51.388;0.048;2022-09-12T05:46:36;10.48;;;9.60;;
63282;SDS011;49407;51.388;0.048;2022-09-12T05:51:51;9.32;;;8.57;;
63282;SDS011;49407;51.388;0.048;2022-09-12T05:54:18;9.40;;;8.80;;
63282;SDS011;49407;51.388;0.048;2022-09-12T05:56:46;9.95;;;9.25;;
63282;SDS011;49407;51.388;0.048;2022-09-12T05:59:16;9.52;;;8.73;;
63282;SDS011;49407;51.388;0.048;2022-09-12T06:01:45;9.50;;;8.63;;
63282;SDS011;49407;51.388;0.048;2022-09-12T06:04:13;9.18;;;8.65;;
63282;SDS011;49407;51.388;0.048;2022-09-12T06:06:41;9.68;;;8.65;;
63282;SDS011;49407;51.388;0.048;2022-09-12T06:09:11;8.77;;;8.27;;
63282;SDS011;49407;51.388;0.048;2022-09-12T06:11:40;8.70;;;8.20;;
63282;SDS011;49407;51.388;0.048;2022-09-12T06:14:09;8.73;;;8.02;;
63282;SDS011;49407;51.388;0.048;2022-09-12T06:16:37;8.23;;;7.72;;
63282;SDS011;49407;51.388;0.048;2022-09-12T06:19:11;8.40;;;7.90;;
63282;SDS011;49407;51.388;0.048;2022-09-12T06:21:40;8.05;;;7.57;;
63282;SDS011;49407;51.388;0.048;2022-09-12T06:24:07;7.50;;;7.00;;
63282;SDS011;49407;51.388;0.048;2022-09-12T06:26:34;6.95;;;6.55;;
63282;SDS011;49407;51.388;0.048;2022-09-12T06:29:03;7.68;;;7.10;;
63282;SDS011;49407;51.388;0.048;2022-09-12T06:31:31;7.85;;;7.28;;
63282;SDS011;49407;51.388;0.048;2022-09-12T06:34:00;7.82;;;7.22;;
63282;SDS011;49407;51.388;0.048;2022-09-12T06:36:30;8.63;;;7.97;;
63282;SDS011;49407;51.388;0.048;2022-09-12T06:39:11;7.72;;;7.32;;
63282;SDS011;49407;51.388;0.048;2022-09-12T06:41:49;7.55;;;7.05;;
63282;SDS011;49407;51.388;0.048;2022-09-12T06:44:19;7.10;;;6.57;;
63282;SDS011;49407;51.388;0.048;2022-09-12T06:46:48;7.40;;;6.85;;
63282;SDS011;49407;51.388;0.048;2022-09-12T06:49:15;7.07;;;6.40;;
63282;SDS011;49407;51.388;0.048;2022-09-12T06:51:43;6.72;;;6.13;;
63282;SDS011;49407;51.388;0.048;2022-09-12T06:54:13;6.55;;;6.05;;
63282;SDS011;49407;51.388;0.048;2022-09-12T06:56:42;7.03;;;6.60;;
63282;SDS011;49407;51.388;0.048;2022-09-12T06:59:11;6.55;;;6.05;;
63282;SDS011;49407;51.388;0.048;2022-09-12T07:01:38;5.70;;;5.30;;
63282;SDS011;49407;51.388;0.048;2022-09-12T07:04:06;5.95;;;5.03;;
63282;SDS011;49407;51.388;0.048;2022-09-12T07:06:35;5.65;;;5.25;;
63282;SDS011;49407;51.388;0.048;2022-09-12T07:09:04;6.13;;;5.72;;
63282;SDS011;49407;51.388;0.048;2022-09-12T07:11:33;5.47;;;5.05;;
63282;SDS011;49407;51.388;0.048;2022-09-12T07:14:03;5.60;;;5.30;;
63282;SDS011;49407;51.388;0.048;2022-09-12T07:16:30;5.22;;;4.82;;
63282;SDS011;49407;51.388;0.048;2022-09-12T07:21:44;5.10;;;4.70;;
63282;SDS011;49407;51.388;0.048;2022-09-12T07:24:11;5.30;;;4.88;;
63282;SDS011;49407;51.388;0.048;2022-09-12T07:26:39;5.47;;;5.05;;
63282;SDS011;49407;51.388;0.048;2022-09-12T07:29:11;5.35;;;5.05;;
63282;SDS011;49407;51.388;0.048;2022-09-12T07:32:01;5.85;;;5.25;;
63282;SDS011;49407;51.388;0.048;2022-09-12T07:34:29;4.72;;;4.43;;
63282;SDS011;49407;51.388;0.048;2022-09-12T07:36:56;5.38;;;4.85;;
63282;SDS011;49407;51.388;0.048;2022-09-12T07:39:24;5.10;;;4.63;;
63282;SDS011;49407;51.388;0.048;2022-09-12T07:41:51;4.55;;;4.25;;
63282;SDS011;49407;51.388;0.048;2022-09-12T07:44:18;4.78;;;4.47;;
63282;SDS011;49407;51.388;0.048;2022-09-12T07:46:44;4.60;;;4.40;;
63282;SDS011;49407;51.388;0.048;2022-09-12T07:49:12;4.40;;;4.10;;
63282;SDS011;49407;51.388;0.048;2022-09-12T07:51:38;4.88;;;4.50;;
63282;SDS011;49407;51.388;0.048;2022-09-12T07:54:06;4.30;;;4.00;;
63282;SDS011;49407;51.388;0.048;2022-09-12T07:56:34;4.65;;;4.35;;
63282;SDS011;49407;51.388;0.048;2022-09-12T07:59:05;5.63;;;4.47;;
63282;SDS011;49407;51.388;0.048;2022-09-12T08:01:35;4.25;;;4.05;;
63282;SDS011;49407;51.388;0.048;2022-09-12T08:04:02;5.47;;;4.60;;
63282;SDS011;49407;51.388;0.048;2022-09-12T08:06:30;4.68;;;4.38;;
63282;SDS011;49407;51.388;0.048;2022-09-12T08:09:02;4.40;;;3.92;;
63282;SDS011;49407;51.388;0.048;2022-09-12T08:11:30;3.95;;;3.63;;
63282;SDS011;49407;51.388;0.048;2022-09-12T08:13:57;3.92;;;3.63;;
63282;SDS011;49407;51.388;0.048;2022-09-12T08:16:26;4.50;;;4.20;;
63282;SDS011;49407;51.388;0.048;2022-09-12T08:18:56;4.55;;;3.85;;
63282;SDS011;49407;51.388;0.048;2022-09-12T08:21:27;4.30;;;3.40;;
63282;SDS011;49407;51.388;0.048;2022-09-12T08:23:57;4.40;;;4.10;;
63282;SDS011;49407;51.388;0.048;2022-09-12T08:26:28;3.78;;;3.47;;
63282;SDS011;49407;51.388;0.048;2022-09-12T08:28:56;4.18;;;3.53;;
63282;SDS011;49407;51.388;0.048;2022-09-12T08:31:23;3.97;;;3.72;;
63282;SDS011;49407;51.388;0.048;2022-09-12T08:33:54;3.55;;;3.35;;
63282;SDS011;49407;51.388;0.048;2022-09-12T08:36:22;3.95;;;3.58;;
63282;SDS011;49407;51.388;0.048;2022-09-12T08:38:55;4.20;;;3.90;;
63282;SDS011;49407;51.388;0.048;2022-09-12T08:41:28;3.47;;;3.28;;
63282;SDS011;49407;51.388;0.048;2022-09-12T08:58:12;2.80;;;2.60;;
63282;SDS011;49407;51.388;0.048;2022-09-12T09:06:06;3.65;;;3.45;;
63282;SDS011;49407;51.388;0.048;2022-09-12T09:17:28;3.88;;;3.58;;
63282;SDS011;49407;51.388;0.048;2022-09-12T09:25:49;5.18;;;3.10;;
63282;SDS011;49407;51.388;0.048;2022-09-12T09:31:13;3.42;;;2.97;;
63282;SDS011;49407;51.388;0.048;2022-09-12T09:33:42;4.20;;;3.30;;
63282;SDS011;49407;51.388;0.048;2022-09-12T09:39:38;3.33;;;3.13;;
63282;SDS011;49407;51.388;0.048;2022-09-12T09:48:12;6.18;;;2.90;;
63282;SDS011;49407;51.388;0.048;2022-09-12T09:50:46;3.53;;;3.22;;
63282;SDS011;49407;51.388;0.048;2022-09-12T09:53:25;3.78;;;3.20;;
63282;SDS011;49407;51.388;0.048;2022-09-12T09:55:54;7.85;;;3.83;;
63282;SDS011;49407;51.388;0.048;2022-09-12T09:58:31;6.43;;;3.60;;
63282;SDS011;49407;51.388;0.048;2022-09-12T10:01:05;3.63;;;3.33;;
63282;SDS011;49407;51.388;0.048;2022-09-12T10:03:46;3.85;;;3.53;;
63282;SDS011;49407;51.388;0.048;2022-09-12T10:09:06;8.10;;;4.45;;
63282;SDS011;49407;51.388;0.048;2022-09-12T10:11:44;4.40;;;4.00;;
63282;SDS011;49407;51.388;0.048;2022-09-12T10:14:56;4.88;;;4.50;;
63282;SDS011;49407;51.388;0.048;2022-09-12T10:20:00;4.45;;;4.15;;
63282;SDS011;49407;51.388;0.048;2022-09-12T10:22:48;9.77;;;5.53;;
63282;SDS011;49407;51.388;0.048;2022-09-12T10:25:16;5.75;;;5.30;;
63282;SDS011;49407;51.388;0.048;2022-09-12T10:27:51;5.03;;;4.53;;
63282;SDS011;49407;51.388;0.048;2022-09-12T10:30:26;5.80;;;5.47;;
63282;SDS011;49407;51.388;0.048;2022-09-12T10:33:03;6.28;;;5.88;;
63282;SDS011;49407;51.388;0.048;2022-09-12T10:35:43;6.50;;;6.10;;
63282;SDS011;49407;51.388;0.048;2022-09-12T10:38:26;6.72;;;6.25;;
63282;SDS011;49407;51.388;0.048;2022-09-12T10:49:11;7.63;;;7.22;;
63282;SDS011;49407;51.388;0.048;2022-09-12T10:51:56;7.05;;;6.68;;
63282;SDS011;49407;51.388;0.048;2022-09-12T10:54:40;9.73;;;8.73;;
63282;SDS011;49407;51.388;0.048;2022-09-12T11:02:58;7.03;;;6.63;;
63282;SDS011;49407;51.388;0.048;2022-09-12T11:05:55;16.40;;;8.05;;
63282;SDS011;49407;51.388;0.048;2022-09-12T11:11:38;8.00;;;7.22;;
63282;SDS011;49407;51.388;0.048;2022-09-12T11:14:12;8.75;;;8.10;;
63282;SDS011;49407;51.388;0.048;2022-09-12T11:17:01;9.18;;;8.55;;
63282;SDS011;49407;51.388;0.048;2022-09-12T11:25:30;7.55;;;6.95;;
63282;SDS011;49407;51.388;0.048;2022-09-12T11:34:34;7.88;;;7.38;;
63282;SDS011;49407;51.388;0.048;2022-09-12T11:40:17;6.75;;;6.35;;
63282;SDS011;49407;51.388;0.048;2022-09-12T11:42:59;6.95;;;6.45;;
63282;SDS011;49407;51.388;0.048;2022-09-12T11:45:38;6.53;;;6.13;;
63282;SDS011;49407;51.388;0.048;2022-09-12T11:48:11;5.35;;;5.07;;
63282;SDS011;49407;51.388;0.048;2022-09-12T11:50:45;4.90;;;4.60;;
63282;SDS011;49407;51.388;0.048;2022-09-12T11:53:17;4.38;;;4.07;;
63282;SDS011;49407;51.388;0.048;2022-09-12T11:55:54;4.25;;;3.95;;
63282;SDS011;49407;51.388;0.048;2022-09-12T11:58:31;3.78;;;3.47;;
63282;SDS011;49407;51.388;0.048;2022-09-12T12:01:07;3.67;;;3.38;;
63282;SDS011;49407;51.388;0.048;2022-09-12T12:03:39;3.17;;;3.03;;
63282;SDS011;49407;51.388;0.048;2022-09-12T12:12:06;3.40;;;3.28;;
63282;SDS011;49407;51.388;0.048;2022-09-12T12:17:18;3.20;;;3.10;;
63282;SDS011;49407;51.388;0.048;2022-09-12T12:19:55;3.15;;;2.95;;
63282;SDS011;49407;51.388;0.048;2022-09-12T12:22:31;3.72;;;3.53;;
63282;SDS011;49407;51.388;0.048;2022-09-12T12:38:34;2.60;;;2.40;;
63282;SDS011;49407;51.388;0.048;2022-09-12T12:43:42;2.95;;;2.75;;
63282;SDS011;49407;51.388;0.048;2022-09-12T12:46:10;2.40;;;2.20;;
63282;SDS011;49407;51.388;0.048;2022-09-12T12:51:55;2.70;;;2.55;;
63282;SDS011;49407;51.388;0.048;2022-09-12T12:54:27;3.17;;;2.97;;
63282;SDS011;49407;51.388;0.048;2022-09-12T12:57:45;2.80;;;;;
63282;SDS011;49407;51.388;0.048;2022-09-12T13:03:17;2.60;;;2.50;;
63282;SDS011;49407;51.388;0.048;2022-09-12T13:06:00;2.20;;;2.10;;
63282;SDS011;49407;51.388;0.048;2022-09-12T13:08:32;2.88;;;2.78;;
63282;SDS011;49407;51.388;0.048;2022-09-12T13:11:02;2.53;;;2.42;;
63282;SDS011;49407;51.388;0.048;2022-09-12T13:16:00;2.40;;;2.20;;
63282;SDS011;49407;51.388;0.048;2022-09-12T13:21:38;2.75;;;2.65;;
63282;SDS011;49407;51.388;0.048;2022-09-12T13:24:21;3.47;;;3.28;;
63282;SDS011;49407;51.388;0.048;2022-09-12T13:26:48;3.00;;;2.80;;
63282;SDS011;49407;51.388;0.048;2022-09-12T13:32:01;2.90;;;2.70;;
63282;SDS011;49407;51.388;0.048;2022-09-12T13:34:29;2.67;;;2.58;;
63282;SDS011;49407;51.388;0.048;2022-09-12T13:39:48;2.63;;;2.53;;
63282;SDS011;49407;51.388;0.048;2022-09-12T13:44:55;2.95;;;2.60;;
63282;SDS011;49407;51.388;0.048;2022-09-12T13:47:47;2.60;;;2.45;;
63282;SDS011;49407;51.388;0.048;2022-09-12T13:50:25;3.15;;;2.92;;
63282;SDS011;49407;51.388;0.048;2022-09-12T13:52:58;3.00;;;2.50;;
63282;SDS011;49407;51.388;0.048;2022-09-12T13:55:33;3.13;;;2.83;;
63282;SDS011;49407;51.388;0.048;2022-09-12T13:58:05;2.80;;;2.33;;
63282;SDS011;49407;51.388;0.048;2022-09-12T14:03:26;2.50;;;2.40;;
63282;SDS011;49407;51.388;0.048;2022-09-12T14:06:14;2.58;;;2.40;;
63282;SDS011;49407;51.388;0.048;2022-09-12T14:08:45;2.83;;;2.63;;
63282;SDS011;49407;51.388;0.048;2022-09-12T14:11:26;2.65;;;2.50;;
63282;SDS011;49407;51.388;0.048;2022-09-12T14:13:55;2.35;;;2.25;;
63282;SDS011;49407;51.388;0.048;2022-09-12T14:16:23;2.45;;;2.25;;
63282;SDS011;49407;51.388;0.048;2022-09-12T14:18:56;2.58;;;2.38;;
63282;SDS011;49407;51.388;0.048;2022-09-12T14:21:29;2.35;;;2.20;;
63282;SDS011;49407;51.388;0.048;2022-09-12T14:24:00;2.60;;;2.40;;
63282;SDS011;49407;51.388;0.048;2022-09-12T14:26:32;1.83;;;1.80;;
63282;SDS011;49407;51.388;0.048;2022-09-12T14:32:12;6.57;;;2.50;;
63282;SDS011;49407;51.388;0.048;2022-09-12T14:37:37;3.05;;;2.08;;
63282;SDS011;49407;51.388;0.048;2022-09-12T14:40:19;2.58;;;2.38;;
63282;SDS011;49407;51.388;0.048;2022-09-12T14:42:48;2.83;;;2.47;;
63282;SDS011;49407;51.388;0.048;2022-09-12T14:45:23;7.72;;;2.55;;
63282;SDS011;49407;51.388;0.048;2022-09-12T14:47:54;2.25;;;2.15;;
63282;SDS011;49407;51.388;0.048;2022-09-12T14:50:22;2.92;;;2.83;;
63282;SDS011;49407;51.388;0.048;2022-09-12T14:55:44;2.17;;;2.08;;
63282;SDS011;49407;51.388;0.048;2022-09-12T14:58:32;3.83;;;2.03;;
63282;SDS011;49407;51.388;0.048;2022-09-12T15:01:00;2.00;;;1.90;;
63282;SDS011;49407;51.388;0.048;2022-09-12T15:08:48;2.45;;;2.35;;
63282;SDS011;49407;51.388;0.048;2022-09-12T15:11:17;2.40;;;2.20;;
63282;SDS011;49407;51.388;0.048;2022-09-12T15:13:44;2.78;;;2.55;;
63282;SDS011;49407;51.388;0.048;2022-09-12T15:16:11;2.40;;;2.20;;
63282;SDS011;49407;51.388;0.048;2022-09-12T15:18:38;2.30;;;2.20;;
63282;SDS011;49407;51.388;0.048;2022-09-12T15:21:06;2.40;;;2.03;;
63282;SDS011;49407;51.388;0.048;2022-09-12T15:23:39;2.63;;;2.42;;
63282;SDS011;49407;51.388;0.048;2022-09-12T15:26:08;2.42;;;2.33;;
63282;SDS011;49407;51.388;0.048;2022-09-12T15:28:38;2.50;;;2.30;;
63282;SDS011;49407;51.388;0.048;2022-09-12T15:31:09;2.70;;;2.42;;
63282;SDS011;49407;51.388;0.048;2022-09-12T15:33:56;3.03;;;2.83;;
63282;SDS011;49407;51.388;0.048;2022-09-12T15:36:24;2.83;;;2.63;;
63282;SDS011;49407;51.388;0.048;2022-09-12T15:38:51;3.05;;;2.65;;
63282;SDS011;49407;51.388;0.048;2022-09-12T15:41:24;3.03;;;2.80;;
63282;SDS011;49407;51.388;0.048;2022-09-12T15:43:56;2.67;;;2.47;;
63282;SDS011;49407;51.388;0.048;2022-09-12T15:46:23;3.10;;;2.90;;
63282;SDS011;49407;51.388;0.048;2022-09-12T15:48:50;3.13;;;2.92;;
63282;SDS011;49407;51.388;0.048;2022-09-12T15:51:18;2.70;;;2.60;;
63282;SDS011;49407;51.388;0.048;2022-09-12T15:53:47;2.97;;;2.85;;
63282;SDS011;49407;51.388;0.048;2022-09-12T15:56:15;2.88;;;2.67;;
63282;SDS011;49407;51.388;0.048;2022-09-12T15:58:45;3.08;;;2.95;;
63282;SDS011;49407;51.388;0.048;2022-09-12T16:01:24;3.28;;;2.97;;
63282;SDS011;49407;51.388;0.048;2022-09-12T16:03:51;2.85;;;2.75;;
63282;SDS011;49407;51.388;0.048;2022-09-12T16:06:18;2.75;;;2.65;;
63282;SDS011;49407;51.388;0.048;2022-09-12T16:08:46;3.00;;;2.90;;
63282;SDS011;49407;51.388;0.048;2022-09-12T16:11:20;3.17;;;2.97;;
63282;SDS011;49407;51.388;0.048;2022-09-12T16:13:50;3.55;;;3.35;;
63282;SDS011;49407;51.388;0.048;2022-09-12T16:16:17;3.47;;;2.92;;
63282;SDS011;49407;51.388;0.048;2022-09-12T16:18:45;3.15;;;2.95;;
63282;SDS011;49407;51.388;0.048;2022-09-12T16:21:12;3.17;;;3.08;;
63282;SDS011;49407;51.388;0.048;2022-09-12T16:23:41;3.65;;;3.03;;
63282;SDS011;49407;51.388;0.048;2022-09-12T16:26:09;3.28;;;3.08;;
63282;SDS011;49407;51.388;0.048;2022-09-12T16:28:36;3.35;;;3.05;;
63282;SDS011;49407;51.388;0.048;2022-09-12T16:31:04;7.07;;;3.10;;
63282;SDS011;49407;51.388;0.048;2022-09-12T16:33:32;3.65;;;3.55;;
63282;SDS011;49407;51.388;0.048;2022-09-12T16:36:01;3.40;;;3.20;;
63282;SDS011;49407;51.388;0.048;2022-09-12T16:41:34;3.30;;;3.10;;
63282;SDS011;49407;51.388;0.048;2022-09-12T16:44:01;3.75;;;3.63;;
63282;SDS011;49407;51.388;0.048;2022-09-12T16:46:28;3.38;;;3.15;;
63282;SDS011;49407;51.388;0.048;2022-09-12T16:48:56;3.50;;;3.33;;
63282;SDS011;49407;51.388;0.048;2022-09-12T16:51:29;3.55;;;3.35;;
63282;SDS011;49407;51.388;0.048;2022-09-12T16:53:58;3.70;;;3.50;;
63282;SDS011;49407;51.388;0.048;2022-09-12T16:56:25;3.70;;;3.40;;
63282;SDS011;49407;51.388;0.048;2022-09-12T17:01:42;3.10;;;3.00;;
63282;SDS011;49407;51.388;0.048;2022-09-12T17:04:10;3.88;;;3.67;;
63282;SDS011;49407;51.388;0.048;2022-09-12T17:06:37;3.88;;;3.67;;
63282;SDS011;49407;51.388;0.048;2022-09-12T17:09:04;3.88;;;3.13;;
63282;SDS011;49407;51.388;0.048;2022-09-12T17:11:35;3.65;;;3.40;;
63282;SDS011;49407;51.388;0.048;2022-09-12T17:14:04;3.38;;;3.25;;
63282;SDS011;49407;51.388;0.048;2022-09-12T17:16:33;3.45;;;3.25;;
63282;SDS011;49407;51.388;0.048;2022-09-12T17:19:03;3.55;;;3.35;;
63282;SDS011;49407;51.388;0.048;2022-09-12T17:21:31;4.10;;;3.90;;
63282;SDS011;49407;51.388;0.048;2022-09-12T17:23:58;4.07;;;3.88;;
63282;SDS011;49407;51.388;0.048;2022-09-12T17:26:25;3.17;;;3.08;;
63282;SDS011;49407;51.388;0.048;2022-09-12T17:31:44;3.60;;;3.40;;
63282;SDS011;49407;51.388;0.048;2022-09-12T17:34:11;4.25;;;3.95;;
63282;SDS011;49407;51.388;0.048;2022-09-12T17:36:43;3.47;;;3.28;;
63282;SDS011;49407;51.388;0.048;2022-09-12T17:39:11;4.18;;;3.90;;
63282;SDS011;49407;51.388;0.048;2022-09-12T17:41:42;4.50;;;4.20;;
63282;SDS011;49407;51.388;0.048;2022-09-12T17:44:12;4.22;;;4.03;;
63282;SDS011;49407;51.388;0.048;2022-09-12T17:46:40;4.85;;;4.55;;
63282;SDS011;49407;51.388;0.048;2022-09-12T17:49:11;4.97;;;4.63;;
63282;SDS011;49407;51.388;0.048;2022-09-12T17:51:39;5.50;;;5.10;;
63282;SDS011;49407;51.388;0.048;2022-09-12T17:54:08;5.28;;;4.85;;
63282;SDS011;49407;51.388;0.048;2022-09-12T17:56:37;4.95;;;4.65;;
63282;SDS011;49407;51.388;0.048;2022-09-12T17:59:06;6.35;;;5.43;;
63282;SDS011;49407;51.388;0.048;2022-09-12T18:01:38;4.35;;;4.05;;
63282;SDS011;49407;51.388;0.048;2022-09-12T18:04:24;4.70;;;4.40;;
63282;SDS011;49407;51.388;0.048;2022-09-12T18:06:52;4.85;;;4.50;;
63282;SDS011;49407;51.388;0.048;2022-09-12T18:09:22;4.50;;;4.30;;
63282;SDS011;49407;51.388;0.048;2022-09-12T18:11:50;4.30;;;4.07;;
63282;SDS011;49407;51.388;0.048;2022-09-12T18:14:18;5.10;;;4.80;;
63282;SDS011;49407;51.388;0.048;2022-09-12T18:16:45;4.22;;;4.03;;
63282;SDS011;49407;51.388;0.048;2022-09-12T18:22:19;4.97;;;4.68;;
63282;SDS011;49407;51.388;0.048;2022-09-12T18:24:46;4.55;;;4.25;;
63282;SDS011;49407;51.388;0.048;2022-09-12T18:27:13;5.47;;;5.07;;
63282;SDS011;49407;51.388;0.048;2022-09-12T18:32:46;4.50;;;4.30;;
63282;SDS011;49407;51.388;0.048;2022-09-12T18:35:13;5.00;;;4.75;;
63282;SDS011;49407;51.388;0.048;2022-09-12T18:37:40;4.80;;;4.50;;
63282;SDS011;49407;51.388;0.048;2022-09-12T18:42:58;5.40;;;5.00;;
63282;SDS011;49407;51.388;0.048;2022-09-12T18:45:25;4.85;;;4.45;;
63282;SDS011;49407;51.388;0.048;2022-09-12T18:47:52;5.25;;;4.85;;
63282;SDS011;49407;51.388;0.048;2022-09-12T18:50:21;5.57;;;5.28;;
63282;SDS011;49407;51.388;0.048;2022-09-12T18:52:53;5.25;;;4.95;;